createdAt,value
2022-08-17T00:01:07.895Z,8.49
2022-08-17T00:03:38.748Z,9.31
2022-08-17T00:06:06.019Z,8.26
2022-08-17T00:08:33.296Z,8.23
2022-08-17T00:11:00.590Z,7.99
2022-08-17T00:13:27.875Z,8.32
2022-08-17T00:15:55.140Z,8.30
2022-08-17T00:19:04.185Z,8.02
2022-08-17T00:21:11.663Z,8.05
2022-08-17T00:23:38.942Z,8.46
2022-08-17T00:26:11.806Z,8.10
2022-08-17T00:28:39.103Z,8.52
2022-08-17T00:31:06.384Z,8.46
2022-08-17T00:33:33.662Z,8.57
2022-08-17T00:36:00.952Z,8.78
2022-08-17T00:38:28.225Z,8.59
2022-08-17T00:40:59.327Z,9.26
2022-08-17T00:43:26.739Z,9.61
2022-08-17T00:45:54.007Z,9.62
2022-08-17T00:48:26.195Z,9.44
2022-08-17T00:50:57.597Z,9.35
2022-08-17T00:53:24.892Z,9.49
2022-08-17T00:55:52.180Z,9.35
2022-08-17T00:58:20.388Z,9.37
2022-08-17T01:01:03.328Z,9.19
2022-08-17T01:03:30.648Z,9.45
2022-08-17T01:05:57.931Z,9.75
2022-08-17T01:08:25.490Z,9.45
2022-08-17T01:11:00.789Z,9.31
2022-08-17T01:13:28.970Z,9.48
2022-08-17T01:15:56.274Z,9.75
2022-08-17T01:18:23.567Z,9.38
2022-08-17T01:20:50.840Z,9.08
2022-08-17T01:23:20.509Z,8.84
2022-08-17T01:25:48.732Z,9.31
2022-08-17T01:28:52.568Z,9.19
2022-08-17T01:31:05.694Z,9.52
2022-08-17T01:33:32.983Z,9.68
2022-08-17T01:36:00.248Z,9.55
2022-08-17T01:38:27.554Z,9.42
2022-08-17T01:40:57.503Z,9.61
2022-08-17T01:43:25.092Z,9.69
2022-08-17T01:46:03.381Z,10.10
2022-08-17T01:48:31.214Z,9.66
2022-08-17T01:50:58.474Z,10.00
2022-08-17T01:53:26.541Z,10.28
2022-08-17T01:55:53.833Z,10.19
2022-08-17T01:58:21.139Z,10.19
2022-08-17T02:00:48.418Z,10.14
2022-08-17T02:03:27.655Z,10.17
2022-08-17T02:05:54.945Z,10.58
2022-08-17T02:08:38.824Z,10.50
2022-08-17T02:11:11.337Z,10.57
2022-08-17T02:13:39.116Z,10.75
2022-08-17T02:16:06.419Z,11.09
2022-08-17T02:18:33.719Z,10.84
2022-08-17T02:21:01.007Z,10.94
2022-08-17T02:23:28.291Z,11.56
2022-08-17T02:25:55.581Z,11.67
2022-08-17T02:28:22.874Z,11.96
2022-08-17T02:31:00.993Z,12.78
2022-08-17T02:33:37.292Z,12.91
2022-08-17T02:36:10.687Z,12.89
2022-08-17T02:38:37.984Z,12.97
2022-08-17T02:41:05.265Z,13.10
2022-08-17T02:43:32.566Z,13.65
2022-08-17T02:45:59.851Z,14.07
2022-08-17T02:48:31.280Z,14.12
2022-08-17T02:50:59.214Z,12.88
2022-08-17T02:53:26.507Z,11.97
2022-08-17T02:55:53.820Z,10.35
2022-08-17T02:58:34.382Z,9.62
2022-08-17T03:01:03.179Z,9.25
2022-08-17T03:03:30.463Z,9.92
2022-08-17T03:05:57.744Z,10.59
2022-08-17T03:08:25.058Z,10.86
2022-08-17T03:10:52.348Z,10.25
2022-08-17T03:13:19.736Z,10.49
2022-08-17T03:15:47.015Z,10.24
2022-08-17T03:18:24.663Z,9.92
2022-08-17T03:20:53.140Z,10.37
2022-08-17T03:23:23.847Z,10.14
2022-08-17T03:25:53.113Z,10.29
2022-08-17T03:28:20.912Z,10.14
2022-08-17T03:30:48.238Z,10.49
2022-08-17T03:33:15.556Z,10.36
2022-08-17T03:35:42.854Z,10.24
2022-08-17T03:38:10.167Z,10.59
2022-08-17T03:40:58.931Z,10.38
2022-08-17T03:43:24.705Z,9.91
2022-08-17T03:45:51.986Z,9.62
2022-08-17T03:48:20.761Z,9.10
2022-08-17T03:50:48.061Z,10.35
2022-08-17T03:53:15.341Z,10.43
2022-08-17T03:55:42.618Z,9.96
2022-08-17T03:58:09.916Z,10.07
2022-08-17T04:00:39.695Z,9.90
2022-08-17T04:03:07.150Z,9.61
2022-08-17T04:05:36.348Z,10.62
2022-08-17T04:08:03.626Z,11.08
2022-08-17T04:10:33.968Z,10.96
2022-08-17T04:13:12.497Z,10.96
2022-08-17T04:15:39.814Z,11.00
2022-08-17T04:18:07.583Z,11.48
2022-08-17T04:20:38.371Z,11.33
2022-08-17T04:23:05.649Z,11.13
2022-08-17T04:25:32.926Z,11.81
2022-08-17T04:28:00.233Z,11.30
2022-08-17T04:30:27.507Z,11.60
2022-08-17T04:33:00.786Z,11.49
2022-08-17T04:35:32.962Z,11.08
2022-08-17T04:38:00.294Z,11.16
2022-08-17T04:40:27.638Z,10.82
2022-08-17T04:43:00.171Z,10.83
2022-08-17T04:45:32.079Z,10.84
2022-08-17T04:47:59.862Z,10.90
2022-08-17T04:50:27.166Z,11.01
2022-08-17T04:52:54.619Z,11.58
2022-08-17T04:55:22.122Z,11.18
2022-08-17T04:57:49.436Z,11.59
2022-08-17T05:00:16.717Z,11.35
2022-08-17T05:02:49.587Z,11.23
2022-08-17T05:05:19.746Z,11.10
2022-08-17T05:07:48.133Z,10.79
2022-08-17T05:10:15.420Z,10.59
2022-08-17T05:12:42.758Z,10.93
2022-08-17T05:15:10.082Z,10.86
2022-08-17T05:17:37.360Z,10.81
2022-08-17T05:20:04.665Z,11.05
2022-08-17T05:22:31.975Z,10.99
2022-08-17T05:24:59.252Z,11.56
2022-08-17T05:27:35.145Z,11.29
2022-08-17T05:30:03.284Z,11.55
2022-08-17T05:32:38.805Z,12.20
2022-08-17T05:35:07.547Z,11.96
2022-08-17T05:37:34.820Z,12.02
2022-08-17T05:40:02.159Z,11.46
2022-08-17T05:42:29.542Z,13.11
2022-08-17T05:44:56.820Z,12.33
2022-08-17T05:47:24.122Z,13.08
2022-08-17T05:49:51.433Z,13.32
2022-08-17T05:52:21.215Z,13.89
2022-08-17T05:54:48.510Z,13.28
2022-08-17T05:57:15.815Z,13.14
2022-08-17T05:59:43.318Z,12.72
2022-08-17T06:02:10.592Z,13.02
2022-08-17T06:04:37.919Z,13.11
2022-08-17T06:07:05.206Z,13.08
2022-08-17T06:09:33.995Z,13.18
2022-08-17T06:12:01.462Z,14.00
2022-08-17T06:14:29.817Z,13.77
2022-08-17T06:16:57.119Z,13.81
2022-08-17T06:19:24.435Z,14.02
2022-08-17T06:21:51.736Z,13.49
2022-08-17T06:24:19.028Z,13.97
2022-08-17T06:26:46.619Z,13.92
2022-08-17T06:29:18.737Z,13.42
2022-08-17T06:31:46.404Z,13.39
2022-08-17T06:34:15.781Z,13.81
2022-08-17T06:36:43.076Z,13.82
2022-08-17T06:39:10.386Z,13.24
2022-08-17T06:41:38.096Z,13.45
2022-08-17T06:44:05.485Z,13.37
2022-08-17T06:46:32.773Z,13.49
2022-08-17T06:49:00.082Z,13.60
2022-08-17T06:51:27.382Z,14.09
2022-08-17T06:53:54.694Z,14.26
2022-08-17T06:56:21.999Z,12.87
2022-08-17T06:58:49.305Z,12.66
2022-08-17T07:01:16.696Z,13.28
2022-08-17T07:03:44.052Z,13.61
2022-08-17T07:06:11.355Z,13.99
2022-08-17T07:08:38.677Z,14.42
2022-08-17T07:11:06.002Z,14.01
2022-08-17T07:13:33.294Z,14.41
2022-08-17T07:16:00.578Z,14.81
2022-08-17T07:18:27.896Z,15.38
2022-08-17T07:20:56.282Z,15.19
2022-08-17T07:23:23.611Z,15.65
2022-08-17T07:25:50.897Z,15.34
2022-08-17T07:28:18.214Z,15.29
2022-08-17T07:30:47.314Z,16.02
2022-08-17T07:33:15.243Z,15.74
2022-08-17T07:35:44.247Z,15.31
2022-08-17T07:38:24.989Z,15.56
2022-08-17T07:40:53.866Z,15.60
2022-08-17T07:43:23.184Z,15.22
2022-08-17T07:45:50.965Z,15.26
2022-08-17T07:48:18.256Z,14.32
2022-08-17T07:50:49.572Z,12.45
2022-08-17T07:53:18.047Z,10.95
2022-08-17T07:55:45.354Z,11.08
2022-08-17T07:58:12.643Z,10.50
2022-08-17T08:00:39.924Z,10.26
2022-08-17T08:03:07.228Z,9.74
2022-08-17T08:05:50.376Z,10.42
2022-08-17T08:08:18.196Z,9.50
2022-08-17T08:10:45.628Z,9.14
2022-08-17T08:13:14.240Z,8.44
2022-08-17T08:15:44.982Z,8.63
2022-08-17T08:18:45.916Z,8.10
2022-08-17T08:21:08.519Z,8.30
2022-08-17T08:23:35.802Z,11.75
2022-08-17T08:26:03.085Z,10.70
2022-08-17T08:28:30.404Z,10.59
2022-08-17T08:30:57.690Z,11.26
2022-08-17T08:33:24.976Z,11.93
2022-08-17T08:35:52.290Z,11.94
2022-08-17T08:38:21.528Z,11.88
2022-08-17T08:40:48.810Z,12.56
2022-08-17T08:43:16.326Z,11.62
2022-08-17T08:45:43.608Z,11.40
2022-08-17T08:48:12.821Z,12.38
2022-08-17T08:50:58.124Z,12.72
2022-08-17T08:53:25.956Z,12.96
2022-08-17T08:55:53.242Z,12.62
2022-08-17T08:58:31.802Z,12.22
2022-08-17T09:01:07.832Z,11.65
2022-08-17T09:03:52.907Z,11.17
2022-08-17T09:06:32.577Z,11.28
2022-08-17T09:09:06.927Z,9.89
2022-08-17T09:11:34.225Z,10.12
2022-08-17T09:14:28.194Z,10.45
2022-08-17T09:16:56.144Z,10.14
2022-08-17T09:19:25.368Z,9.21
2022-08-17T09:21:52.637Z,8.55
2022-08-17T09:24:20.680Z,8.48
2022-08-17T09:26:48.280Z,8.81
2022-08-17T09:29:15.550Z,9.35
2022-08-17T09:31:48.849Z,9.26
2022-08-17T09:34:16.858Z,8.69
2022-08-17T09:36:44.144Z,9.14
2022-08-17T09:39:11.423Z,9.43
2022-08-17T09:41:38.679Z,9.61
2022-08-17T09:44:23.110Z,8.96
2022-08-17T09:46:50.814Z,9.31
2022-08-17T09:49:20.715Z,8.87
2022-08-17T09:51:51.964Z,9.55
2022-08-17T09:54:38.009Z,8.25
2022-08-17T09:57:28.754Z,8.83
2022-08-17T09:59:53.709Z,9.00
2022-08-17T10:02:20.995Z,9.17
2022-08-17T10:04:48.395Z,8.95
2022-08-17T10:07:15.678Z,8.67
2022-08-17T10:09:42.956Z,8.56
2022-08-17T10:12:10.251Z,9.51
2022-08-17T10:14:44.435Z,9.23
2022-08-17T10:17:11.954Z,9.88
2022-08-17T10:19:39.257Z,10.06
2022-08-17T10:22:32.376Z,10.00
2022-08-17T10:25:21.129Z,9.81
2022-08-17T10:27:45.849Z,9.79
2022-08-17T10:30:13.178Z,10.01
2022-08-17T10:32:41.602Z,9.93
2022-08-17T10:35:08.904Z,9.45
2022-08-17T10:37:36.183Z,10.25
2022-08-17T10:40:03.495Z,10.10
2022-08-17T10:42:32.965Z,10.49
2022-08-17T10:45:00.590Z,10.66
2022-08-17T10:47:27.876Z,10.23
2022-08-17T10:49:55.270Z,9.76
2022-08-17T10:52:25.076Z,10.38
2022-08-17T10:54:58.344Z,10.33
2022-08-17T10:57:26.120Z,10.73
2022-08-17T10:59:53.412Z,10.43
2022-08-17T11:02:20.692Z,10.03
2022-08-17T11:04:47.992Z,10.00
2022-08-17T11:07:15.271Z,10.34
2022-08-17T11:09:42.559Z,9.88
2022-08-17T11:12:09.855Z,9.89
2022-08-17T11:14:37.153Z,10.00
2022-08-17T11:17:04.438Z,10.17
2022-08-17T11:19:31.890Z,9.82
2022-08-17T11:21:59.173Z,9.60
2022-08-17T11:24:26.445Z,10.26
2022-08-17T11:26:53.737Z,9.98
2022-08-17T11:29:21.017Z,9.34
2022-08-17T11:31:51.977Z,9.97
2022-08-17T11:34:21.505Z,9.58
2022-08-17T11:36:48.774Z,9.48
2022-08-17T11:39:16.050Z,9.18
2022-08-17T11:41:43.366Z,9.74
2022-08-17T11:44:10.653Z,10.01
2022-08-17T11:46:37.938Z,9.68
2022-08-17T11:49:08.826Z,8.97
2022-08-17T11:51:36.476Z,9.30
2022-08-17T11:54:31.196Z,10.19
2022-08-17T11:56:51.000Z,9.91
2022-08-17T11:59:18.285Z,10.70
2022-08-17T12:01:45.569Z,10.06
2022-08-17T12:04:12.888Z,9.35
2022-08-17T12:06:40.191Z,9.92
2022-08-17T12:09:07.456Z,9.89
2022-08-17T12:12:11.010Z,10.02
2022-08-17T12:14:29.409Z,10.00
2022-08-17T12:17:07.312Z,9.38
2022-08-17T12:19:36.129Z,9.54
2022-08-17T12:22:03.392Z,9.56
2022-08-17T12:24:30.689Z,9.65
2022-08-17T12:26:57.969Z,9.35
2022-08-17T12:29:35.439Z,9.22
2022-08-17T12:32:06.305Z,9.25
2022-08-17T12:34:33.586Z,9.74
2022-08-17T12:37:00.871Z,9.49
2022-08-17T12:39:28.211Z,9.30
2022-08-17T12:42:02.712Z,9.18
2022-08-17T12:44:30.274Z,9.60
2022-08-17T12:46:57.571Z,9.51
2022-08-17T12:49:24.843Z,9.17
2022-08-17T12:51:52.140Z,9.18
2022-08-17T12:54:19.403Z,8.96
2022-08-17T12:56:47.667Z,9.16
2022-08-17T12:59:14.995Z,9.33
2022-08-17T13:01:56.945Z,9.25
2022-08-17T13:04:24.585Z,9.19
2022-08-17T13:07:00.007Z,9.23
2022-08-17T13:09:35.399Z,8.82
2022-08-17T13:12:03.429Z,9.12
2022-08-17T13:14:33.330Z,8.84
2022-08-17T13:17:01.429Z,9.17
2022-08-17T13:19:29.838Z,9.46
2022-08-17T13:22:07.948Z,9.08
2022-08-17T13:24:38.241Z,9.40
2022-08-17T13:27:08.020Z,8.55
2022-08-17T13:29:35.651Z,8.95
2022-08-17T13:32:05.007Z,9.23
2022-08-17T13:34:33.302Z,9.34
2022-08-17T13:37:00.777Z,9.67
2022-08-17T13:39:33.840Z,9.54
2022-08-17T13:42:01.153Z,9.30
2022-08-17T13:44:28.433Z,9.51
2022-08-17T13:46:57.235Z,9.49
2022-08-17T13:49:24.787Z,9.15
2022-08-17T13:52:09.292Z,9.61
2022-08-17T13:54:37.655Z,9.51
2022-08-17T13:57:04.934Z,9.09
2022-08-17T13:59:52.749Z,9.38
2022-08-17T14:02:19.572Z,9.41
2022-08-17T14:04:46.857Z,9.26
2022-08-17T14:07:14.116Z,8.91
2022-08-17T14:09:41.411Z,9.11
2022-08-17T14:12:08.693Z,9.32
2022-08-17T14:14:36.001Z,9.15
2022-08-17T14:17:03.281Z,9.46
2022-08-17T14:19:30.548Z,9.40
2022-08-17T14:21:57.850Z,9.01
2022-08-17T14:24:25.123Z,9.12
2022-08-17T14:26:52.403Z,9.08
2022-08-17T14:29:19.702Z,9.05
2022-08-17T14:31:53.384Z,8.83
2022-08-17T14:34:21.874Z,8.51
2022-08-17T14:36:49.157Z,8.98
2022-08-17T14:39:16.488Z,8.18
2022-08-17T14:41:43.772Z,8.63
2022-08-17T14:44:13.008Z,8.44
2022-08-17T14:46:40.394Z,8.69
2022-08-17T14:49:07.672Z,8.06
2022-08-17T14:51:35.616Z,8.17
2022-08-17T14:54:10.842Z,8.24
2022-08-17T14:56:38.233Z,8.41
2022-08-17T14:59:05.544Z,8.12
2022-08-17T15:01:32.882Z,8.48
2022-08-17T15:04:00.185Z,8.05
2022-08-17T15:06:27.481Z,8.13
2022-08-17T15:08:54.749Z,7.58
2022-08-17T15:11:22.067Z,8.12
2022-08-17T15:13:52.355Z,8.06
2022-08-17T15:16:20.444Z,8.15
2022-08-17T15:18:47.711Z,7.94
2022-08-17T15:21:14.990Z,8.11
2022-08-17T15:23:43.565Z,8.16
2022-08-17T15:26:10.953Z,7.61
2022-08-17T15:28:38.251Z,7.96
2022-08-17T15:31:05.533Z,8.15
2022-08-17T15:33:32.840Z,7.93
2022-08-17T15:36:00.115Z,7.97
2022-08-17T15:38:27.391Z,8.05
2022-08-17T15:40:54.681Z,8.04
2022-08-17T15:43:27.057Z,7.93
2022-08-17T15:45:59.608Z,8.47
2022-08-17T15:48:27.417Z,8.17
2022-08-17T15:50:54.688Z,8.11
2022-08-17T15:53:21.964Z,8.87
2022-08-17T15:55:49.248Z,8.90
2022-08-17T15:58:19.280Z,8.98
2022-08-17T16:00:49.422Z,8.59
2022-08-17T16:04:04.778Z,8.59
2022-08-17T16:06:08.103Z,9.21
2022-08-17T16:08:39.020Z,8.68
2022-08-17T16:11:06.284Z,8.71
2022-08-17T16:13:33.560Z,9.16
2022-08-17T16:16:00.907Z,9.05
2022-08-17T16:18:28.198Z,8.98
2022-08-17T16:20:55.501Z,8.54
2022-08-17T16:23:22.886Z,9.10
2022-08-17T16:25:52.919Z,9.27
2022-08-17T16:28:21.307Z,9.01
2022-08-17T16:30:48.618Z,9.70
2022-08-17T16:33:15.888Z,10.98
2022-08-17T16:35:43.160Z,11.48
2022-08-17T16:38:10.473Z,11.60
2022-08-17T16:40:37.747Z,11.96
2022-08-17T16:43:05.031Z,11.61
2022-08-17T16:45:32.356Z,12.23
2022-08-17T16:47:59.643Z,11.90
2022-08-17T16:50:26.939Z,11.21
2022-08-17T16:52:54.230Z,9.57
2022-08-17T16:55:21.508Z,9.43
2022-08-17T16:57:50.587Z,10.30
2022-08-17T17:00:18.186Z,9.53
2022-08-17T17:02:45.489Z,8.72
2022-08-17T17:05:12.755Z,8.76
2022-08-17T17:07:40.043Z,9.32
2022-08-17T17:10:07.320Z,9.05
2022-08-17T17:13:03.791Z,9.10
2022-08-17T17:15:22.371Z,9.32
2022-08-17T17:17:49.863Z,9.11
2022-08-17T17:20:17.211Z,8.91
2022-08-17T17:22:44.513Z,9.26
2022-08-17T17:25:11.881Z,8.50
2022-08-17T17:27:39.191Z,8.27
2022-08-17T17:30:06.478Z,8.30
2022-08-17T17:32:33.750Z,9.29
2022-08-17T17:35:01.047Z,9.08
2022-08-17T17:37:28.324Z,8.42
2022-08-17T17:39:55.683Z,8.92
2022-08-17T17:42:22.981Z,8.76
2022-08-17T17:44:50.266Z,8.34
2022-08-17T17:47:17.543Z,8.55
2022-08-17T17:49:44.832Z,8.21
2022-08-17T17:52:16.780Z,8.03
2022-08-17T17:54:46.347Z,8.36
2022-08-17T17:57:13.619Z,7.82
2022-08-17T17:59:44.030Z,8.27
2022-08-17T18:02:11.690Z,8.00
2022-08-17T18:04:39.005Z,7.68
2022-08-17T18:07:06.307Z,7.36
2022-08-17T18:09:37.435Z,6.90
2022-08-17T18:12:06.734Z,7.45
2022-08-17T18:14:34.148Z,7.46
2022-08-17T18:17:01.450Z,6.89
2022-08-17T18:19:28.833Z,7.01
2022-08-17T18:21:58.083Z,7.09
2022-08-17T18:24:25.360Z,6.82
2022-08-17T18:26:52.645Z,6.81
2022-08-17T18:29:22.425Z,6.46
2022-08-17T18:31:49.689Z,7.03
2022-08-17T18:34:45.506Z,6.19
2022-08-17T18:37:04.228Z,6.02
2022-08-17T18:39:31.546Z,5.77
2022-08-17T18:41:58.846Z,6.01
2022-08-17T18:44:26.138Z,5.52
2022-08-17T18:46:53.420Z,5.28
2022-08-17T18:49:20.695Z,5.15
2022-08-17T18:51:48.000Z,5.48
2022-08-17T18:54:15.265Z,5.75
2022-08-17T18:56:42.546Z,5.10
2022-08-17T18:59:09.847Z,5.42
2022-08-17T19:01:41.752Z,5.44
2022-08-17T19:04:21.109Z,5.56
2022-08-17T19:06:48.490Z,5.99
2022-08-17T19:09:15.831Z,6.55
2022-08-17T19:11:43.139Z,6.68
2022-08-17T19:14:10.445Z,6.80
2022-08-17T19:16:37.720Z,6.82
2022-08-17T19:19:04.988Z,6.81
2022-08-17T19:21:32.302Z,6.23
2022-08-17T19:23:59.582Z,6.76
2022-08-17T19:26:54.283Z,6.76
2022-08-17T19:29:14.106Z,6.53
2022-08-17T19:31:41.393Z,6.57
2022-08-17T19:34:08.681Z,6.59
2022-08-17T19:36:35.977Z,6.71
2022-08-17T19:39:03.371Z,6.77
2022-08-17T19:41:32.608Z,6.26
2022-08-17T19:43:59.880Z,6.74
2022-08-17T19:46:27.179Z,7.02
2022-08-17T19:48:54.450Z,6.54
2022-08-17T19:51:21.772Z,6.68
2022-08-17T19:54:05.075Z,6.98
2022-08-17T19:56:33.031Z,6.51
2022-08-17T19:59:00.304Z,6.49
2022-08-17T20:01:33.944Z,6.40
2022-08-17T20:04:01.948Z,6.35
2022-08-17T20:06:29.240Z,6.08
2022-08-17T20:08:56.527Z,6.09
2022-08-17T20:11:23.816Z,6.03
2022-08-17T20:13:51.086Z,5.90
2022-08-17T20:16:18.362Z,5.96
2022-08-17T20:18:47.443Z,5.90
2022-08-17T20:21:20.374Z,5.89
2022-08-17T20:23:47.896Z,5.32
2022-08-17T20:26:19.072Z,5.92
2022-08-17T20:28:46.772Z,6.03
2022-08-17T20:31:14.157Z,5.63
2022-08-17T20:33:41.439Z,5.61
2022-08-17T20:36:08.714Z,5.30
2022-08-17T20:38:36.020Z,5.39
2022-08-17T20:41:03.310Z,5.41
2022-08-17T20:43:30.919Z,5.16
2022-08-17T20:45:58.223Z,4.93
2022-08-17T20:48:37.961Z,5.11
2022-08-17T20:51:06.135Z,5.08
2022-08-17T20:53:33.417Z,5.25
2022-08-17T20:56:00.684Z,5.26
2022-08-17T20:58:30.817Z,5.44
2022-08-17T21:00:58.712Z,5.14
2022-08-17T21:03:26.137Z,5.42
2022-08-17T21:05:53.410Z,5.41
2022-08-17T21:08:27.470Z,5.22
2022-08-17T21:10:54.746Z,5.50
2022-08-17T21:13:22.027Z,5.39
2022-08-17T21:15:51.332Z,5.44
2022-08-17T21:18:18.612Z,5.66
2022-08-17T21:20:45.880Z,5.42
2022-08-17T21:23:13.167Z,5.50
2022-08-17T21:25:40.474Z,5.92
2022-08-17T21:28:07.748Z,5.80
2022-08-17T21:30:37.927Z,5.88
2022-08-17T21:33:07.455Z,5.83
2022-08-17T21:35:38.937Z,5.82
2022-08-17T21:38:06.364Z,6.08
2022-08-17T21:40:33.810Z,6.24
2022-08-17T21:43:01.094Z,6.14
2022-08-17T21:45:28.365Z,5.83
2022-08-17T21:47:55.761Z,6.12
2022-08-17T21:50:23.040Z,6.19
2022-08-17T21:52:50.353Z,6.37
2022-08-17T21:55:17.646Z,5.74
2022-08-17T21:57:52.902Z,6.23
2022-08-17T22:00:32.170Z,6.32
2022-08-17T22:02:59.436Z,6.13
2022-08-17T22:05:26.709Z,5.80
2022-08-17T22:07:54.759Z,6.66
2022-08-17T22:10:22.038Z,6.46
2022-08-17T22:12:49.315Z,6.68
2022-08-17T22:15:16.619Z,6.82
2022-08-17T22:17:44.026Z,7.15
2022-08-17T22:20:11.354Z,7.08
2022-08-17T22:22:38.656Z,6.88
2022-08-17T22:25:05.950Z,6.95
2022-08-17T22:27:33.229Z,6.91
2022-08-17T22:30:00.501Z,6.92
2022-08-17T22:32:27.798Z,6.76
2022-08-17T22:34:56.501Z,7.08
2022-08-17T22:37:26.737Z,7.35
2022-08-17T22:39:55.223Z,7.17
2022-08-17T22:42:22.508Z,7.79
2022-08-17T22:44:49.775Z,8.13
2022-08-17T22:47:17.179Z,8.19
2022-08-17T22:49:54.208Z,8.45
2022-08-17T22:52:21.872Z,14.72
2022-08-17T22:54:49.145Z,11.14
2022-08-17T22:57:18.977Z,18.56
2022-08-17T22:59:46.458Z,13.35
2022-08-17T23:02:13.755Z,8.04
2022-08-17T23:04:41.051Z,7.49
2022-08-17T23:07:08.327Z,7.25
2022-08-17T23:09:35.615Z,6.75
2022-08-17T23:12:02.896Z,6.52
2022-08-17T23:14:30.160Z,6.62
2022-08-17T23:16:57.463Z,6.68
2022-08-17T23:19:24.732Z,6.73
2022-08-17T23:21:52.024Z,6.35
2022-08-17T23:24:19.298Z,6.37
2022-08-17T23:26:46.574Z,6.33
2022-08-17T23:29:13.873Z,6.14
2022-08-17T23:31:41.140Z,6.04
2022-08-17T23:34:09.159Z,6.21
2022-08-17T23:36:36.586Z,5.89
2022-08-17T23:39:03.856Z,6.08
2022-08-17T23:41:31.163Z,5.95
2022-08-17T23:43:58.439Z,6.27
2022-08-17T23:46:25.724Z,6.35
2022-08-17T23:48:53.009Z,6.37
2022-08-17T23:51:20.294Z,7.01
2022-08-17T23:53:47.596Z,7.94
2022-08-17T23:56:14.879Z,8.39
2022-08-17T23:58:42.526Z,8.27
